Weather History for KCKC - December, 2013

Change the Weather History Date:

Sunday, December 29, 2013

  Actual Average Record
Temperature  
Mean Temperature -12 °F -  
Max Temperature -5 °F 15 °F 33 °F (1999)
Min Temperature -20 °F 1 °F -20 °F (2013)
Degree Days  
Heating Degree Days 78    
Moisture  
Dew Point -23 °F    
Average Humidity 67    
Maximum Humidity 77    
Minimum Humidity 54    
Precipitation  
Precipitation 0.00 in - - ()
Sea Level Pressure  
Sea Level Pressure 30.01 in    
Wind  
Wind Speed 12 mph (NW)    
Max Wind Speed 16 mph    
Max Gust Speed 23 mph    
Visibility 9 miles    
Events Snow    
Averages and records for this station are not official NWS values.
T = Trace of Precipitation, MM = Missing Value Source: NWS Daily Summary

Daily Weather History Graph

Daily Weather History Graph

Search for Another Location

Airport or City:

Trip Planner

Search our weather history database for the weather conditions in past years. The results will help you decide how hot, cold, wet, or windy it might be!

Date:

Astronomy

Dec. 29, 2013 Rise Set
Actual Time 7:50 AM CST 4:17 PM CST
Civil Twilight 7:14 AM CST 4:53 PM CST
Nautical Twilight 6:34 AM CST 5:32 PM CST
Astronomical Twilight 5:57 AM CST 6:10 PM CST
Moon 4:28 AM CST (12/29) 2:00 PM CST (12/29)
Length of Visible Light 9h 38m
Length of Day
8h 26m
Waning Crescent, 11% of the Moon is Illuminated
Dec 29
Waning Crescent
Jan 1
New
Jan 7
First Quarter
Jan 15
Full
Jan 23
Last Quarter

Hourly Weather History & Observations

Time (CST) Temp. Windchill Dew Point Humidity Pressure Visibility Wind Dir Wind Speed Gust Speed Precip Events Conditions
12:14 AM -5.8 °F -27.5 °F -11.2 °F 77% 29.95 in 5.0 mi NNW 16.1 mph 21.9 mph N/A   Haze
12:33 AM -5.8 °F -27.5 °F -11.2 °F 77% 29.95 in 2.5 mi NNW 16.1 mph 21.9 mph N/A   Haze
12:53 AM -5.8 °F -26.8 °F -11.2 °F 77% 29.95 in 2.5 mi NNW 15.0 mph - N/A   Haze
1:13 AM -5.8 °F -25.2 °F -11.2 °F 77% 29.97 in 5.0 mi NNW 12.7 mph 19.6 mph N/A   Haze
1:34 AM -5.8 °F -23.4 °F -13.0 °F 71% 29.98 in 10.0 mi NNW 10.4 mph - N/A   Overcast
1:53 AM -5.8 °F -25.2 °F -13.0 °F 71% 29.99 in 10.0 mi North 12.7 mph 17.3 mph N/A   Overcast
2:13 AM -7.6 °F -23.4 °F -14.8 °F 71% 29.99 in 10.0 mi NNW 8.1 mph 19.6 mph N/A   Mostly Cloudy
2:34 AM -7.6 °F -27.5 °F -14.8 °F 71% 30.00 in 7.0 mi NNW 12.7 mph 18.4 mph N/A   Mostly Cloudy
2:53 AM -9.4 °F -29.8 °F -16.6 °F 71% 30.01 in 7.0 mi NNW 12.7 mph 23.0 mph N/A   Scattered Clouds
3:13 AM -9.4 °F -29.8 °F -16.6 °F 71% 30.02 in 10.0 mi NNW 12.7 mph 20.7 mph N/A   Scattered Clouds
3:34 AM -11.2 °F -31.1 °F -18.4 °F 70% 30.01 in 10.0 mi NNW 11.5 mph 18.4 mph N/A   Scattered Clouds
3:53 AM -11.2 °F -33.7 °F -18.4 °F 70% 30.01 in 4.0 mi NNW 15.0 mph 21.9 mph N/A   Haze
4:13 AM -11.2 °F -32.9 °F -18.4 °F 70% 30.00 in 5.0 mi NNW 13.8 mph 20.7 mph N/A   Haze
4:34 AM -11.2 °F -31.1 °F -18.4 °F 70% 30.01 in 10.0 mi NNW 11.5 mph 19.6 mph N/A   Scattered Clouds
4:53 AM -13.0 °F -35.2 °F -20.2 °F 70% 30.02 in 5.0 mi NNW 13.8 mph 20.7 mph N/A   Haze
5:14 AM -14.8 °F -37.5 °F -20.2 °F 77% 30.02 in 10.0 mi NNW 13.8 mph 18.4 mph N/A   Scattered Clouds
5:34 AM -14.8 °F -33.5 °F -20.2 °F 77% 30.04 in 10.0 mi NNW 9.2 mph - N/A   Clear
5:53 AM -14.8 °F -38.3 °F -22.0 °F 70% 30.04 in 10.0 mi NNW 15.0 mph - N/A   Scattered Clouds
6:14 AM -16.6 °F -38.9 °F -23.8 °F 70% 30.05 in 10.0 mi NNW 12.7 mph 19.6 mph N/A   Scattered Clouds
6:33 AM -16.6 °F -40.6 °F -23.8 °F 70% 30.06 in 10.0 mi NNW 15.0 mph 19.6 mph N/A   Clear
6:54 AM -16.6 °F -36.8 °F -23.8 °F 70% 30.06 in 10.0 mi NNW 10.4 mph - N/A   Clear
7:13 AM -18.4 °F -41.2 °F -25.6 °F 70% 30.06 in 10.0 mi NNW 12.7 mph - N/A   Scattered Clouds
7:33 AM -18.4 °F -41.2 °F -25.6 °F 70% 30.06 in 10.0 mi NNW 12.7 mph - N/A   Clear
7:54 AM -18.4 °F -42.1 °F -27.4 °F 63% 30.07 in 10.0 mi NNW 13.8 mph - N/A   Clear
8:13 AM -20.2 °F -43.4 °F -27.4 °F 69% 30.06 in 10.0 mi NNW 12.7 mph 18.4 mph N/A   Clear
8:34 AM -18.4 °F -40.2 °F -27.4 °F 63% 30.07 in 10.0 mi NNW 11.5 mph - N/A   Clear
8:53 AM -20.2 °F -43.4 °F -27.4 °F 69% 30.07 in 10.0 mi NNW 12.7 mph 17.3 mph N/A   Clear
9:13 AM -18.4 °F -37.9 °F -27.4 °F 63% 30.07 in 10.0 mi NNW 9.2 mph 18.4 mph N/A   Clear
9:34 AM -18.4 °F -40.2 °F -25.6 °F 70% 30.07 in 10.0 mi NNW 11.5 mph 16.1 mph N/A   Clear
9:53 AM -16.6 °F -37.9 °F -25.6 °F 64% 30.06 in 10.0 mi NNW 11.5 mph - N/A   Clear
10:14 AM -16.6 °F -35.7 °F -25.6 °F 64% 30.06 in 10.0 mi NNW 9.2 mph 17.3 mph N/A Snow Light Snow
10:34 AM -14.8 °F -36.6 °F -23.8 °F 64% 30.05 in 10.0 mi NNW 12.7 mph 17.3 mph N/A   Clear
10:53 AM -14.8 °F -36.6 °F -23.8 °F 64% 30.05 in 10.0 mi NW 12.7 mph 16.1 mph N/A   Clear
11:14 AM -11.2 °F -29.0 °F -22.0 °F 59% 30.04 in 10.0 mi NW 9.2 mph 17.3 mph N/A Snow Light Snow
11:34 AM -11.2 °F -30.1 °F -22.0 °F 59% 30.03 in 10.0 mi NW 10.4 mph 16.1 mph N/A   Clear
11:53 AM -11.2 °F -26.4 °F -22.0 °F 59% 30.03 in 10.0 mi NW 6.9 mph - N/A   Clear
12:13 PM -11.2 °F -29.0 °F -23.8 °F 54% 30.03 in 10.0 mi NW 9.2 mph 16.1 mph N/A   Clear
12:34 PM -11.2 °F -29.0 °F -23.8 °F 54% 30.02 in 10.0 mi NW 9.2 mph - N/A   Clear
12:54 PM -11.2 °F -27.8 °F -23.8 °F 54% 30.02 in 10.0 mi WNW 8.1 mph - N/A   Clear
1:14 PM -11.2 °F -29.0 °F -22.0 °F 59% 30.01 in 10.0 mi NW 9.2 mph - N/A   Clear
1:34 PM -11.2 °F -29.0 °F -20.2 °F 64% 30.01 in 10.0 mi WNW 9.2 mph - N/A   Clear
1:54 PM -11.2 °F -27.8 °F -20.2 °F 64% 30.01 in 10.0 mi WNW 8.1 mph 17.3 mph N/A   Clear
2:13 PM -11.2 °F -29.0 °F -20.2 °F 64% 30.00 in 10.0 mi WNW 9.2 mph - N/A   Clear
2:33 PM -11.2 °F -26.4 °F -20.2 °F 64% 30.00 in 10.0 mi NW 6.9 mph - N/A   Clear
2:53 PM -11.2 °F -31.1 °F -20.2 °F 64% 29.99 in 10.0 mi NW 11.5 mph 17.3 mph N/A   Clear
3:14 PM -11.2 °F -27.8 °F -20.2 °F 64% 30.00 in 10.0 mi WNW 8.1 mph - N/A   Clear
3:33 PM -13.0 °F -30.0 °F -22.0 °F 64% 30.00 in 10.0 mi NW 8.1 mph - N/A   Clear
3:54 PM -14.8 °F -30.8 °F -22.0 °F 70% 30.00 in 10.0 mi NW 6.9 mph - N/A   Clear
4:13 PM -14.8 °F -30.8 °F -23.8 °F 64% 30.00 in 10.0 mi NW 6.9 mph - N/A   Clear
4:33 PM -16.6 °F -31.3 °F -23.8 °F 70% 30.00 in 10.0 mi NW 5.8 mph - N/A   Clear
4:53 PM -16.6 °F -31.3 °F -23.8 °F 70% 30.00 in 10.0 mi NW 5.8 mph - N/A   Scattered Clouds
5:14 PM -16.6 °F -29.3 °F -23.8 °F 70% 29.99 in 10.0 mi WNW 4.6 mph - N/A   Scattered Clouds
5:34 PM -16.6 °F -32.9 °F -23.8 °F 70% 29.99 in 10.0 mi WNW 6.9 mph - N/A   Scattered Clouds
5:53 PM -16.6 °F -32.9 °F -23.8 °F 70% 29.98 in 10.0 mi WNW 6.9 mph - N/A   Scattered Clouds
6:13 PM -16.6 °F -35.7 °F -25.6 °F 64% 29.97 in 10.0 mi WNW 9.2 mph - N/A   Clear
6:34 PM -16.6 °F -34.4 °F -25.6 °F 64% 29.97 in 10.0 mi WNW 8.1 mph 16.1 mph N/A   Scattered Clouds
6:53 PM -18.4 °F -33.4 °F -25.6 °F 70% 29.98 in 10.0 mi WNW 5.8 mph - N/A   Scattered Clouds
7:13 PM -18.4 °F -35.1 °F -25.6 °F 70% 29.98 in 10.0 mi WNW 6.9 mph - N/A   Scattered Clouds
7:33 PM -18.4 °F -36.6 °F -25.6 °F 70% 29.98 in 10.0 mi WNW 8.1 mph 16.1 mph N/A   Clear
7:53 PM -18.4 °F -37.9 °F -25.6 °F 70% 29.98 in 10.0 mi WNW 9.2 mph 19.6 mph N/A   Clear
8:14 PM -18.4 °F -36.6 °F -27.4 °F 63% 29.98 in 10.0 mi WNW 8.1 mph - N/A   Scattered Clouds
8:33 PM -18.4 °F -39.1 °F -27.4 °F 63% 29.99 in 10.0 mi WNW 10.4 mph 18.4 mph N/A   Clear
8:53 PM -18.4 °F -35.1 °F -27.4 °F 63% 30.00 in 10.0 mi WNW 6.9 mph 16.1 mph N/A   Scattered Clouds
9:14 PM -18.4 °F -36.6 °F -27.4 °F 63% 29.99 in 10.0 mi NW 8.1 mph - N/A   Scattered Clouds
9:33 PM -18.4 °F -37.9 °F -27.4 °F 63% 29.99 in 10.0 mi NW 9.2 mph 18.4 mph N/A   Clear
9:54 PM -18.4 °F -33.4 °F -27.4 °F 63% 29.99 in 10.0 mi NW 5.8 mph - N/A   Clear
10:13 PM -18.4 °F -35.1 °F -27.4 °F 63% 29.99 in 10.0 mi WNW 6.9 mph - N/A   Clear
10:34 PM -18.4 °F -36.6 °F -27.4 °F 63% 29.99 in 10.0 mi WNW 8.1 mph - N/A   Scattered Clouds
10:53 PM -20.2 °F -40.1 °F -27.4 °F 69% 30.00 in 10.0 mi WNW 9.2 mph - N/A   Clear
11:14 PM -18.4 °F -36.6 °F -27.4 °F 63% 30.00 in 10.0 mi NW 8.1 mph - N/A   Clear
11:34 PM -20.2 °F -40.1 °F -27.4 °F 69% 30.02 in 10.0 mi WNW 9.2 mph - N/A   Clear
11:53 PM -20.2 °F -38.8 °F -27.4 °F 69% 30.01 in 10.0 mi NW 8.1 mph - N/A   Clear